Time;durP1;ratioP1;P1;durP2;ratioP2;P2;SDS_P1;SDS_P2;PMS_P1;PMS_P2;Temp;Humidity;BMP_temperature;BMP_pressure;BME280_temperature;BME280_humidity;BME280_pressure;Samples;Min_cycle;Max_cycle;Signal;HPM_P1;HPM_P2
2022/01/02 00:01:11;;;;;;;358.70;194.25;;;6.70;1.00;;;;;;5078770;28;20063;-77
2022/01/02 00:03:41;;;;;;;381.45;205.10;;;6.60;1.00;;;;;;5057633;28;20059;-77
2022/01/02 00:06:09;;;;;;;364.65;203.60;;;6.50;99.90;;;;;;5068419;28;20446;-78
2022/01/02 00:08:47;;;;;;;294.77;160.50;;;6.50;99.90;;;;;;5063030;28;20124;-76
2022/01/02 00:11:21;;;;;;;293.10;156.10;;;6.40;99.90;;;;;;5078296;28;20036;-79
2022/01/02 00:13:50;;;;;;;329.67;174.70;;;6.40;1.00;;;;;;5059699;28;20086;-78
2022/01/02 00:16:18;;;;;;;282.33;151.77;;;6.40;1.00;;;;;;5076407;28;20108;-78
2022/01/02 00:19:02;;;;;;;288.33;152.50;;;6.30;1.00;;;;;;5067667;28;20044;-79
2022/01/02 00:21:32;;;;;;;258.52;138.68;;;6.30;1.00;;;;;;5070842;28;20056;-77
2022/01/02 00:24:05;;;;;;;239.40;133.73;;;6.30;1.00;;;;;;5094957;28;20052;-78
2022/01/02 00:26:38;;;;;;;235.77;133.77;;;6.30;1.00;;;;;;5076248;28;20052;-79
2022/01/02 00:29:07;;;;;;;238.95;135.40;;;6.20;1.00;;;;;;5066001;28;20499;-77
2022/01/02 00:31:35;;;;;;;216.68;122.93;;;6.20;99.90;;;;;;5075206;28;20372;-77
2022/01/02 00:34:04;;;;;;;191.77;107.78;;;6.10;99.90;;;;;;5077584;28;20043;-77
2022/01/02 00:36:32;;;;;;;142.52;85.90;;;6.10;99.90;;;;;;5075920;28;20048;-79
2022/01/02 00:39:01;;;;;;;207.15;128.95;;;6.00;99.90;;;;;;5069509;28;20142;-79
2022/01/02 00:41:35;;;;;;;214.70;127.07;;;6.00;1.00;;;;;;5048322;28;20102;-78
2022/01/02 00:44:13;;;;;;;232.68;136.02;;;6.00;1.00;;;;;;5038988;28;20072;-78
2022/01/02 00:46:52;;;;;;;198.32;118.82;;;6.00;1.00;;;;;;5075197;28;20055;-80
2022/01/02 00:49:25;;;;;;;211.02;113.30;;;6.00;1.00;;;;;;5061011;28;20165;-79
2022/01/02 00:52:03;;;;;;;227.85;123.57;;;6.00;1.00;;;;;;5072669;28;20406;-79
2022/01/02 00:54:34;;;;;;;215.05;118.47;;;5.90;1.00;;;;;;5063943;28;20131;-80
2022/01/02 00:57:06;;;;;;;208.02;111.47;;;5.80;99.90;;;;;;5059578;28;20044;-78
2022/01/02 00:59:45;;;;;;;199.80;101.85;;;5.80;99.90;;;;;;5095791;28;20052;-77
2022/01/02 01:02:17;;;;;;;175.68;93.13;;;5.70;99.90;;;;;;5060201;28;20115;-77
2022/01/02 01:04:47;;;;;;;186.93;98.97;;;5.70;99.90;;;;;;5076996;28;20380;-78
2022/01/02 01:07:15;;;;;;;183.07;99.40;;;5.60;99.90;;;;;;5059939;28;20053;-78
2022/01/02 01:09:45;;;;;;;185.82;98.43;;;5.60;99.90;;;;;;5064671;28;20069;-77
2022/01/02 01:12:12;;;;;;;163.82;91.20;;;5.60;99.90;;;;;;5061553;28;20051;-77
2022/01/02 01:14:40;;;;;;;156.82;87.43;;;5.50;99.90;;;;;;5057591;28;20052;-78
2022/01/02 01:17:10;;;;;;;180.32;96.40;;;5.50;99.90;;;;;;5076501;28;20044;-77
2022/01/02 01:19:38;;;;;;;173.75;92.40;;;5.40;99.90;;;;;;5059555;28;20083;-77
2022/01/02 01:22:06;;;;;;;172.23;90.18;;;5.40;99.90;;;;;;5058884;28;20055;-79
2022/01/02 01:24:35;;;;;;;184.88;98.18;;;5.40;99.90;;;;;;5057996;28;20053;-79
2022/01/02 01:27:07;;;;;;;196.50;104.82;;;5.40;99.90;;;;;;5060941;28;20044;-78
2022/01/02 01:29:35;;;;;;;214.02;115.80;;;5.30;99.90;;;;;;5059295;28;20050;-77
2022/01/02 01:32:07;;;;;;;188.73;101.75;;;5.30;99.90;;;;;;5056826;28;20040;-77
2022/01/02 01:34:35;;;;;;;176.57;97.70;;;5.30;99.90;;;;;;5077163;28;20040;-78
2022/01/02 01:37:03;;;;;;;160.93;90.68;;;5.30;99.90;;;;;;5052235;28;20068;-78
2022/01/02 01:39:33;;;;;;;157.32;86.00;;;5.30;99.90;;;;;;5057730;28;20048;-77
2022/01/02 01:42:09;;;;;;;161.60;84.78;;;5.20;99.90;;;;;;5054458;28;20415;-79
2022/01/02 01:44:52;;;;;;;153.18;83.40;;;5.20;99.90;;;;;;5077862;28;20071;-80
2022/01/02 01:47:20;;;;;;;143.90;78.15;;;5.20;99.90;;;;;;5077347;28;20051;-79
2022/01/02 01:49:48;;;;;;;133.25;71.80;;;5.10;99.90;;;;;;5057917;28;20045;-78
2022/01/02 01:52:17;;;;;;;128.93;73.22;;;5.10;99.90;;;;;;5039572;28;20045;-79
2022/01/02 01:54:45;;;;;;;98.00;56.80;;;5.10;90.90;;;;;;5069775;28;20068;-76
2022/01/02 01:57:14;;;;;;;103.85;57.03;;;5.00;1.00;;;;;;5060832;28;20041;-79
2022/01/02 01:59:41;;;;;;;125.65;71.63;;;5.00;3.40;;;;;;5061227;28;20044;-79
2022/01/02 02:02:10;;;;;;;112.90;62.80;;;4.90;50.30;;;;;;5078199;28;20053;-78
2022/01/02 02:04:39;;;;;;;126.25;72.50;;;4.90;79.60;;;;;;5059611;28;20049;-80
2022/01/02 02:07:06;;;;;;;224.98;118.22;;;4.90;23.60;;;;;;5058914;28;20060;-78
2022/01/02 02:09:47;;;;;;;260.95;143.25;;;4.90;1.00;;;;;;5060715;28;20052;-80
2022/01/02 02:12:18;;;;;;;208.65;116.82;;;4.80;93.40;;;;;;5063851;28;20470;-81
2022/01/02 02:14:46;;;;;;;181.80;102.13;;;4.80;99.90;;;;;;5064232;28;20461;-82
2022/01/02 02:17:14;;;;;;;217.98;120.55;;;4.80;99.90;;;;;;5063794;28;20057;-81
2022/01/02 02:19:42;;;;;;;203.13;112.20;;;4.80;99.90;;;;;;5065224;28;20082;-81
2022/01/02 02:22:12;;;;;;;181.18;102.50;;;4.70;99.90;;;;;;5065321;28;20108;-80
2022/01/02 02:24:41;;;;;;;155.10;87.88;;;4.70;99.90;;;;;;5063754;28;20052;-79
2022/01/02 02:27:08;;;;;;;153.18;83.45;;;4.60;99.90;;;;;;5083098;28;20068;-82
2022/01/02 02:29:36;;;;;;;164.52;91.70;;;4.60;1.00;;;;;;5064803;28;20120;-81
2022/01/02 02:32:04;;;;;;;130.70;73.88;;;4.60;99.90;;;;;;5064862;28;20048;-81
2022/01/02 02:34:31;;;;;;;122.75;69.28;;;4.60;99.90;;;;;;5071187;28;20052;-80
2022/01/02 02:36:59;;;;;;;111.65;62.38;;;4.50;99.90;;;;;;5074772;28;20055;-80
2022/01/02 02:39:32;;;;;;;120.13;65.88;;;4.50;99.90;;;;;;5074769;28;20025;-82
2022/01/02 02:42:08;;;;;;;113.85;62.90;;;4.40;99.90;;;;;;5092682;28;20046;-83
2022/01/02 02:44:38;;;;;;;;;;;4.40;94.30;;;;;;5074536;28;20074;-78
2022/01/02 02:49:52;;;;;;;113.43;59.10;;;4.40;99.90;;;;;;5077375;28;20056;-78
2022/01/02 02:52:33;;;;;;;105.38;56.03;;;4.40;99.90;;;;;;5074512;28;20153;-81
2022/01/02 02:55:03;;;;;;;126.43;64.47;;;4.40;99.90;;;;;;5063684;28;20048;-80
2022/01/02 02:57:32;;;;;;;122.88;65.50;;;4.40;99.90;;;;;;5063404;28;20052;-81
2022/01/02 03:00:00;;;;;;;140.85;74.78;;;4.40;99.90;;;;;;5078350;28;20052;-81
2022/01/02 03:02:28;;;;;;;131.07;71.55;;;4.40;99.90;;;;;;5060267;28;20407;-79
2022/01/02 03:04:55;;;;;;;112.25;63.25;;;4.30;99.90;;;;;;5078564;28;20048;-81
2022/01/02 03:07:23;;;;;;;98.45;57.15;;;4.20;99.90;;;;;;5079385;28;20041;-80
2022/01/02 03:09:52;;;;;;;94.95;55.08;;;4.10;99.90;;;;;;5081439;28;20086;-79
2022/01/02 03:12:24;;;;;;;95.47;54.80;;;4.10;1.00;;;;;;5061961;28;20098;-80
2022/01/02 03:14:53;;;;;;;104.55;58.33;;;4.10;1.00;;;;;;5061993;28;20052;-79
2022/01/02 03:17:20;;;;;;;104.43;57.35;;;4.10;1.00;;;;;;5063216;28;20055;-79
2022/01/02 03:19:48;;;;;;;112.35;61.65;;;4.10;1.00;;;;;;5062354;28;20041;-80
2022/01/02 03:22:19;;;;;;;109.38;60.90;;;4.10;99.90;;;;;;5061986;28;20385;-79
2022/01/02 03:24:49;;;;;;;106.22;60.15;;;4.00;99.90;;;;;;5080171;28;20049;-80
2022/01/02 03:27:20;;;;;;;109.50;61.35;;;4.00;1.00;;;;;;5062538;28;20522;-80
2022/01/02 03:29:49;;;;;;;109.32;60.70;;;4.00;1.00;;;;;;5072290;28;20044;-79
2022/01/02 03:32:16;;;;;;;105.90;58.08;;;4.00;1.00;;;;;;5075564;28;20047;-81
2022/01/02 03:34:44;;;;;;;102.93;57.08;;;3.90;99.90;;;;;;5074060;28;20072;-80
2022/01/02 03:37:11;;;;;;;96.22;55.10;;;3.90;99.90;;;;;;5061553;28;20072;-80
2022/01/02 03:39:39;;;;;;;97.70;53.80;;;3.80;99.90;;;;;;5062055;28;20135;-81
2022/01/02 03:42:07;;;;;;;101.68;56.97;;;3.80;99.90;;;;;;5061354;28;20044;-79
2022/01/02 03:44:35;;;;;;;95.53;52.25;;;3.80;1.00;;;;;;5062566;28;20049;-81
2022/01/02 03:47:06;;;;;;;98.03;53.72;;;3.80;1.00;;;;;;5061603;28;20466;-79
2022/01/02 03:49:34;;;;;;;87.50;49.92;;;3.80;99.90;;;;;;5061921;28;20086;-81
2022/01/02 03:52:02;;;;;;;90.75;50.90;;;3.70;99.90;;;;;;5058537;28;20075;-80
2022/01/02 03:54:30;;;;;;;86.97;48.92;;;3.70;99.90;;;;;;5060233;28;20048;-81
2022/01/02 03:56:58;;;;;;;96.00;53.97;;;3.70;1.00;;;;;;5059160;28;20048;-81
2022/01/02 03:59:25;;;;;;;95.80;52.88;;;3.70;99.90;;;;;;5058595;28;20053;-79
2022/01/02 04:01:53;;;;;;;113.30;59.97;;;3.70;1.00;;;;;;5072717;28;20097;-81
2022/01/02 04:04:22;;;;;;;107.35;57.13;;;3.60;99.90;;;;;;5079325;28;20460;-81
2022/01/02 04:06:49;;;;;;;108.60;59.38;;;3.50;1.00;;;;;;5080148;28;20036;-81
2022/01/02 04:09:17;;;;;;;109.47;56.92;;;3.50;1.00;;;;;;5062878;28;20052;-80
2022/01/02 04:11:44;;;;;;;96.05;54.38;;;3.50;63.20;;;;;;5083710;28;20059;-78
2022/01/02 04:14:12;;;;;;;108.13;59.58;;;3.60;99.90;;;;;;5072328;28;20071;-79
2022/01/02 04:16:39;;;;;;;100.85;53.60;;;3.60;99.90;;;;;;5065936;28;20056;-79
2022/01/02 04:19:09;;;;;;;114.53;55.45;;;3.60;1.00;;;;;;5063262;28;20063;-79
2022/01/02 04:21:38;;;;;;;105.97;58.53;;;3.50;1.00;;;;;;5079237;28;20500;-80
2022/01/02 04:24:06;;;;;;;107.28;58.95;;;3.40;1.00;;;;;;5060234;28;20071;-81
2022/01/02 04:26:33;;;;;;;108.03;57.58;;;3.50;21.40;;;;;;5060151;28;20495;-80
2022/01/02 04:29:01;;;;;;;106.90;57.03;;;3.50;99.90;;;;;;5060449;28;20074;-81
2022/01/02 04:31:29;;;;;;;96.00;55.00;;;3.60;99.90;;;;;;5078155;28;20051;-80
2022/01/02 04:33:58;;;;;;;105.75;58.97;;;3.60;1.00;;;;;;5059822;28;20053;-80
2022/01/02 04:36:26;;;;;;;114.85;59.90;;;3.50;1.00;;;;;;5059150;28;20044;-81
2022/01/02 04:38:56;;;;;;;93.22;51.00;;;3.40;1.00;;;;;;5059710;28;20515;-80
2022/01/02 04:41:24;;;;;;;84.13;48.10;;;3.40;1.00;;;;;;5060480;28;20040;-81
2022/01/02 04:43:53;;;;;;;92.30;51.05;;;3.40;99.90;;;;;;5060124;28;20049;-81
2022/01/02 04:46:21;;;;;;;90.40;51.78;;;3.50;99.90;;;;;;5077225;28;20560;-79
2022/01/02 04:48:49;;;;;;;90.88;52.88;;;3.50;52.70;;;;;;5056718;28;20063;-82
2022/01/02 04:51:16;;;;;;;99.53;53.97;;;3.50;1.00;;;;;;5069488;28;20045;-81
2022/01/02 04:53:48;;;;;;;96.35;53.92;;;3.40;1.00;;;;;;5056830;28;20052;-80
2022/01/02 04:56:18;;;;;;;92.20;53.35;;;3.40;1.00;;;;;;5059677;28;20048;-81
2022/01/02 04:58:47;;;;;;;101.78;54.47;;;3.40;1.00;;;;;;5048274;28;20049;-83
2022/01/02 05:01:16;;;;;;;100.57;53.53;;;3.40;1.00;;;;;;5071888;28;20571;-79
2022/01/02 05:03:45;;;;;;;102.70;54.67;;;3.40;1.00;;;;;;5052801;28;20053;-79
2022/01/02 05:06:14;;;;;;;103.40;55.10;;;3.40;1.00;;;;;;5055238;28;20048;-80
2022/01/02 05:08:44;;;;;;;115.15;53.95;;;3.40;1.00;;;;;;5052504;28;20053;-80
2022/01/02 05:11:13;;;;;;;108.03;54.47;;;3.30;1.00;;;;;;5044402;28;20045;-81
2022/01/02 05:13:42;;;;;;;89.50;49.00;;;3.20;1.00;;;;;;5038877;28;20040;-79
2022/01/02 05:16:10;;;;;;;95.45;51.03;;;3.20;1.00;;;;;;5056149;28;20060;-80
2022/01/02 05:18:38;;;;;;;101.30;53.45;;;3.30;1.00;;;;;;5052092;28;20056;-80
2022/01/02 05:21:06;;;;;;;99.65;54.83;;;3.30;1.00;;;;;;5076549;28;20410;-81
2022/01/02 05:23:34;;;;;;;101.32;55.55;;;3.30;1.00;;;;;;5037595;28;20049;-81
2022/01/02 05:26:01;;;;;;;114.57;60.80;;;3.30;1.00;;;;;;5035505;28;20060;-80
2022/01/02 05:28:30;;;;;;;117.63;62.10;;;3.20;1.00;;;;;;5035282;28;20045;-79
2022/01/02 05:30:59;;;;;;;105.68;60.10;;;3.10;1.00;;;;;;5035740;28;20048;-79
2022/01/02 05:33:27;;;;;;;101.38;58.38;;;3.10;1.00;;;;;;5059451;28;20044;-80
2022/01/02 05:35:55;;;;;;;103.47;59.20;;;3.10;1.00;;;;;;5057566;28;20044;-80
2022/01/02 05:38:23;;;;;;;121.95;61.53;;;3.10;1.00;;;;;;5055991;28;20099;-80
2022/01/02 05:40:52;;;;;;;131.68;61.45;;;3.00;1.00;;;;;;5055141;28;20112;-79
2022/01/02 05:43:22;;;;;;;119.60;57.38;;;3.00;1.00;;;;;;5057092;28;20044;-79
2022/01/02 05:45:49;;;;;;;104.57;57.22;;;2.90;1.00;;;;;;5059184;28;20041;-80
2022/01/02 05:48:19;;;;;;;92.30;53.15;;;3.00;99.90;;;;;;5052351;28;20097;-80
2022/01/02 05:50:47;;;;;;;106.97;56.75;;;3.00;99.90;;;;;;5063122;28;20041;-80
2022/01/02 05:53:15;;;;;;;114.30;58.08;;;3.10;99.90;;;;;;5065512;28;20041;-79
2022/01/02 05:55:43;;;;;;;123.68;57.42;;;3.10;1.00;;;;;;5043329;28;20079;-82
2022/01/02 05:58:11;;;;;;;111.45;58.47;;;3.00;1.00;;;;;;5044005;28;20103;-80
2022/01/02 06:00:39;;;;;;;115.50;55.63;;;3.00;80.20;;;;;;5045234;28;20057;-80
2022/01/02 06:03:07;;;;;;;106.53;55.35;;;3.00;99.90;;;;;;5079708;28;20051;-80
2022/01/02 06:05:36;;;;;;;127.70;63.20;;;3.00;99.90;;;;;;5063306;28;20040;-81
2022/01/02 06:08:05;;;;;;;128.65;62.40;;;3.00;99.90;;;;;;5064607;28;20442;-81
2022/01/02 06:10:33;;;;;;;161.43;67.03;;;3.00;99.90;;;;;;5069151;28;20044;-81
2022/01/02 06:13:00;;;;;;;115.82;59.35;;;3.00;99.90;;;;;;5064180;28;20044;-81
2022/01/02 06:15:28;;;;;;;117.25;61.20;;;2.90;99.90;;;;;;5061553;28;20495;-81
2022/01/02 06:17:55;;;;;;;115.72;56.08;;;2.90;1.00;;;;;;5072548;28;20044;-81
2022/01/02 06:20:23;;;;;;;102.82;53.45;;;3.00;1.00;;;;;;5063550;28;20049;-80
2022/01/02 06:22:54;;;;;;;126.47;60.50;;;3.00;1.00;;;;;;5063886;28;20037;-81
2022/01/02 06:25:25;;;;;;;122.70;61.15;;;3.00;1.00;;;;;;5073776;28;20040;-80
2022/01/02 06:27:52;;;;;;;120.10;60.25;;;3.00;1.00;;;;;;5081621;28;20539;-81
2022/01/02 06:30:20;;;;;;;109.55;58.35;;;3.00;1.00;;;;;;5063564;28;20542;-81
2022/01/02 06:32:54;;;;;;;110.80;59.05;;;3.00;1.00;;;;;;5067481;28;20072;-81
2022/01/02 06:35:24;;;;;;;123.72;62.22;;;3.10;1.00;;;;;;5064092;28;20523;-79
2022/01/02 06:37:54;;;;;;;116.10;62.85;;;3.10;99.90;;;;;;5079588;28;20082;-80
2022/01/02 06:40:23;;;;;;;120.10;64.13;;;3.10;1.00;;;;;;5043451;28;20500;-79
2022/01/02 06:42:51;;;;;;;122.45;61.28;;;3.00;1.00;;;;;;5056790;28;20067;-80
2022/01/02 06:45:19;;;;;;;105.75;59.63;;;3.00;1.00;;;;;;5080976;28;20100;-81
2022/01/02 06:47:48;;;;;;;117.03;63.50;;;2.90;1.00;;;;;;5076689;28;20044;-79
2022/01/02 06:50:16;;;;;;;126.47;66.25;;;3.10;1.00;;;;;;5058453;28;20390;-80
2022/01/02 06:52:44;;;;;;;148.15;72.00;;;3.10;1.00;;;;;;5054925;28;20029;-83
2022/01/02 06:55:13;;;;;;;123.82;66.88;;;3.10;1.00;;;;;;5057719;28;20047;-79
2022/01/02 06:57:41;;;;;;;122.07;67.90;;;3.10;1.00;;;;;;5052409;28;20041;-80
2022/01/02 07:00:10;;;;;;;132.13;72.20;;;3.20;99.90;;;;;;5052091;28;20071;-80
2022/01/02 07:02:37;;;;;;;125.75;67.25;;;3.20;99.90;;;;;;5077128;28;20079;-80
2022/01/02 07:05:06;;;;;;;114.63;62.97;;;3.20;99.90;;;;;;5075401;28;20052;-80
2022/01/02 07:07:33;;;;;;;119.15;66.47;;;3.30;99.90;;;;;;5044226;28;20077;-78
2022/01/02 07:10:01;;;;;;;117.95;69.60;;;3.40;20.80;;;;;;5059377;28;20139;-81
2022/01/02 07:12:30;;;;;;;121.47;69.22;;;3.40;1.00;;;;;;5060252;28;20048;-79
2022/01/02 07:14:58;;;;;;;106.22;60.15;;;3.40;1.00;;;;;;5070040;28;20090;-79
2022/01/02 07:17:25;;;;;;;127.05;70.75;;;3.30;1.00;;;;;;5061370;28;20094;-81
2022/01/02 07:19:53;;;;;;;151.02;79.13;;;3.50;1.00;;;;;;5079053;28;20099;-81
2022/01/02 07:22:20;;;;;;;160.77;87.18;;;3.50;1.00;;;;;;5058404;28;20491;-78
2022/01/02 07:24:51;;;;;;;142.57;83.20;;;3.50;1.00;;;;;;5051376;28;20053;-77
2022/01/02 07:27:19;;;;;;;149.48;88.85;;;3.60;1.00;;;;;;5081166;28;20048;-78
2022/01/02 07:29:48;;;;;;;140.50;82.35;;;3.60;1.00;;;;;;5060044;28;20032;-79
2022/01/02 07:32:16;;;;;;;129.23;76.72;;;3.70;1.00;;;;;;5043646;28;20048;-79
2022/01/02 07:34:44;;;;;;;157.23;90.88;;;3.80;1.00;;;;;;5040779;28;20053;-78
2022/01/02 07:37:11;;;;;;;160.77;90.22;;;3.90;1.00;;;;;;5063881;28;20037;-78
2022/01/02 07:39:39;;;;;;;168.07;97.65;;;4.00;1.00;;;;;;5070341;28;20072;-78
2022/01/02 07:42:07;;;;;;;164.10;92.88;;;4.00;99.90;;;;;;5061750;28;20072;-81
2022/01/02 07:44:40;;;;;;;157.48;91.03;;;4.10;1.00;;;;;;5077985;28;20049;-78
2022/01/02 07:47:09;;;;;;;163.52;97.78;;;4.20;1.00;;;;;;5065736;28;20056;-80
2022/01/02 07:49:37;;;;;;;163.50;99.63;;;4.30;99.90;;;;;;5088973;28;20057;-79
2022/01/02 07:52:05;;;;;;;186.35;111.38;;;4.40;99.90;;;;;;5072698;28;20056;-83
2022/01/02 07:54:32;;;;;;;165.20;100.57;;;4.40;99.90;;;;;;5091253;28;20057;-80
2022/01/02 07:56:59;;;;;;;173.07;99.47;;;4.40;99.90;;;;;;5092987;28;20063;-80
2022/01/02 07:59:27;;;;;;;171.65;103.55;;;4.50;99.90;;;;;;5071910;28;20175;-80
2022/01/02 08:01:54;;;;;;;190.05;113.57;;;4.70;99.90;;;;;;5057688;28;20049;-80
2022/01/02 08:04:23;;;;;;;172.48;103.93;;;4.80;99.90;;;;;;5078442;28;20048;-81
2022/01/02 08:06:51;;;;;;;181.77;105.13;;;4.90;99.90;;;;;;5067895;28;20048;-81
2022/01/02 08:09:19;;;;;;;174.57;104.57;;;4.90;99.90;;;;;;5071765;28;20037;-80
2022/01/02 08:11:46;;;;;;;177.38;105.15;;;5.00;99.90;;;;;;5086305;28;20194;-81
2022/01/02 08:14:15;;;;;;;190.65;110.05;;;5.10;99.90;;;;;;5065568;28;20048;-80
2022/01/02 08:16:42;;;;;;;193.40;109.97;;;5.20;65.90;;;;;;5083985;28;20110;-79
2022/01/02 08:19:10;;;;;;;170.15;101.43;;;5.20;11.80;;;;;;5084847;28;20052;-79
2022/01/02 08:21:40;;;;;;;159.65;93.13;;;5.20;54.50;;;;;;5083697;28;20040;-79
2022/01/02 08:24:08;;;;;;;141.82;86.47;;;5.40;88.60;;;;;;5066973;28;20041;-81
2022/01/02 08:26:35;;;;;;;176.45;104.03;;;5.60;97.80;;;;;;5068313;28;20514;-78
2022/01/02 08:29:03;;;;;;;171.15;104.57;;;5.70;1.00;;;;;;5066741;28;20070;-78
2022/01/02 08:31:31;;;;;;;177.40;104.97;;;5.70;1.00;;;;;;5083825;28;20048;-79
2022/01/02 08:33:59;;;;;;;154.43;97.32;;;5.70;1.00;;;;;;5067051;28;20094;-78
2022/01/02 08:36:27;;;;;;;167.77;100.90;;;5.90;69.20;;;;;;5084773;28;20055;-79
2022/01/02 08:38:56;;;;;;;156.00;96.25;;;6.00;95.50;;;;;;5066800;28;20075;-78
2022/01/02 08:41:24;;;;;;;158.15;95.50;;;6.20;19.00;;;;;;5085548;28;20060;-80
2022/01/02 08:43:51;;;;;;;138.52;89.13;;;6.30;1.00;;;;;;5069377;28;20045;-80
2022/01/02 08:46:19;;;;;;;186.98;116.55;;;6.30;1.00;;;;;;5086097;28;20044;-78
2022/01/02 08:48:46;;;;;;;189.57;113.13;;;6.40;1.00;;;;;;5063202;28;20059;-80
2022/01/02 08:51:14;;;;;;;205.15;123.38;;;6.40;1.00;;;;;;5089334;28;20048;-79
2022/01/02 08:53:42;;;;;;;220.27;131.07;;;6.40;1.00;;;;;;5090358;28;20040;-79
2022/01/02 08:56:10;;;;;;;224.30;133.75;;;6.50;1.00;;;;;;5093257;28;20483;-78
2022/01/02 08:58:38;;;;;;;222.10;133.18;;;6.50;1.00;;;;;;5084822;28;20036;-80
2022/01/02 09:01:05;;;;;;;211.80;128.95;;;6.60;1.00;;;;;;5080894;28;20079;-81
2022/01/02 09:03:33;;;;;;;212.77;125.63;;;6.80;1.00;;;;;;5090515;28;20068;-79
2022/01/02 09:06:01;;;;;;;215.13;127.63;;;7.00;1.00;;;;;;5091044;28;20052;-79
2022/01/02 09:08:28;;;;;;;182.57;109.38;;;7.10;1.00;;;;;;5074306;28;20112;-79
2022/01/02 09:10:56;;;;;;;187.65;114.75;;;7.30;1.00;;;;;;5070453;28;20090;-79
2022/01/02 09:13:26;;;;;;;180.10;109.03;;;7.30;1.00;;;;;;5088662;28;20640;-79
2022/01/02 09:15:54;;;;;;;186.68;114.40;;;7.50;1.00;;;;;;5067191;28;20115;-79
2022/01/02 09:18:22;;;;;;;192.48;117.18;;;7.70;1.00;;;;;;5067654;28;20048;-79
2022/01/02 09:20:50;;;;;;;187.77;115.43;;;7.80;1.00;;;;;;5067642;28;20048;-77
2022/01/02 09:23:17;;;;;;;174.50;107.93;;;8.10;1.00;;;;;;5063237;28;20071;-78
2022/01/02 09:25:45;;;;;;;151.90;91.78;;;8.20;1.00;;;;;;5079345;28;20495;-81
2022/01/02 09:28:13;;;;;;;137.05;88.50;;;8.40;1.00;;;;;;5081742;28;20041;-80
2022/01/02 09:30:42;;;;;;;138.35;85.15;;;8.60;1.00;;;;;;5065678;28;20139;-79
2022/01/02 09:33:10;;;;;;;129.75;82.55;;;8.80;1.00;;;;;;5063728;28;20037;-77
2022/01/02 09:35:41;;;;;;;119.95;75.47;;;8.90;1.00;;;;;;5077441;28;20096;-77
2022/01/02 09:38:09;;;;;;;130.73;77.32;;;9.00;1.00;;;;;;5078702;28;20076;-78
2022/01/02 09:40:37;;;;;;;113.30;70.80;;;9.00;1.00;;;;;;5057322;28;20413;-79
2022/01/02 09:43:05;;;;;;;101.32;66.72;;;9.10;1.00;;;;;;5058239;28;20116;-79
2022/01/02 09:45:38;;;;;;;110.28;67.50;;;9.20;1.00;;;;;;5073059;28;20041;-79
2022/01/02 09:48:11;;;;;;;104.80;64.57;;;9.40;1.00;;;;;;5050184;28;20511;-84
2022/01/02 09:50:41;;;;;;;101.82;62.40;;;9.50;1.00;;;;;;5076238;28;20418;-79
2022/01/02 09:53:09;;;;;;;98.00;62.42;;;9.60;1.00;;;;;;5068026;28;20140;-80
2022/01/02 09:55:37;;;;;;;100.80;63.63;;;9.70;1.00;;;;;;5067678;28;20605;-78
2022/01/02 09:58:10;;;;;;;93.47;59.30;;;9.80;1.00;;;;;;5042546;28;20053;-81
2022/01/02 10:00:38;;;;;;;106.90;63.63;;;9.90;1.00;;;;;;5067273;28;20044;-78
2022/01/02 10:03:09;;;;;;;100.40;62.97;;;10.00;1.00;;;;;;5063944;28;20490;-78
2022/01/02 10:05:55;;;;;;;99.53;61.42;;;10.20;1.00;;;;;;5075868;28;20062;-75
2022/01/02 10:08:27;;;;;;;98.20;62.20;;;10.30;1.00;;;;;;5050351;28;20139;-80
2022/01/02 10:11:03;;;;;;;90.30;58.65;;;10.40;1.00;;;;;;5077600;28;20049;-80
2022/01/02 10:13:46;;;;;;;83.38;52.10;;;10.50;99.90;;;;;;5056466;28;20041;-81
2022/01/02 10:16:21;;;;;;;63.33;42.60;;;10.70;99.90;;;;;;5056759;28;20504;-81
2022/01/02 10:18:52;;;;;;;70.78;44.45;;;10.80;99.90;;;;;;5055989;28;20085;-82
2022/01/02 10:21:30;;;;;;;76.90;48.50;;;10.90;99.90;;;;;;5044401;28;20045;-81
2022/01/02 10:24:15;;;;;;;79.70;50.10;;;11.00;99.90;;;;;;5051515;28;20044;-82
2022/01/02 10:27:04;;;;;;;94.07;58.78;;;11.10;99.90;;;;;;5056641;28;20576;-82
2022/01/02 10:29:41;;;;;;;109.03;69.80;;;11.20;99.90;;;;;;5055546;28;20071;-80
2022/01/02 10:32:30;;;;;;;112.13;73.03;;;11.40;99.90;;;;;;5059326;28;20055;-83
2022/01/02 10:35:14;;;;;;;109.53;71.30;;;11.50;99.90;;;;;;5064087;28;20528;-82
2022/01/02 10:37:43;;;;;;;105.35;68.88;;;11.70;99.90;;;;;;5068873;28;20063;-82
2022/01/02 10:40:30;;;;;;;99.82;66.20;;;11.70;99.90;;;;;;5067063;28;20045;-82
2022/01/02 10:42:59;;;;;;;97.05;65.05;;;11.90;99.90;;;;;;5061277;28;20052;-84
2022/01/02 10:45:34;;;;;;;96.65;61.38;;;12.00;99.90;;;;;;5063009;28;20048;-84
2022/01/02 10:48:04;;;;;;;103.13;63.40;;;12.10;99.90;;;;;;5063625;28;20056;-82
2022/01/02 10:50:33;;;;;;;95.45;60.20;;;12.20;99.90;;;;;;5069814;28;20029;-82
2022/01/02 10:53:15;;;;;;;88.55;58.92;;;12.20;99.90;;;;;;5072284;28;20116;-82
2022/01/02 10:55:45;;;;;;;90.13;57.60;;;12.40;99.90;;;;;;5088804;28;20079;-84
2022/01/02 10:58:14;;;;;;;87.72;56.03;;;12.50;99.90;;;;;;5091836;28;20025;-82
2022/01/02 11:00:42;;;;;;;80.53;54.13;;;12.50;99.90;;;;;;5062976;28;20052;-80
2022/01/02 11:03:11;;;;;;;79.45;52.65;;;12.60;99.90;;;;;;5078640;28;20060;-85
2022/01/02 11:05:40;;;;;;;84.82;51.85;;;12.70;99.90;;;;;;5087785;28;20036;-82
2022/01/02 11:08:09;;;;;;;80.55;51.53;;;12.80;99.90;;;;;;5100142;28;20021;-84
2022/01/02 11:10:39;;;;;;;81.75;52.10;;;13.00;99.90;;;;;;5093330;28;20045;-85
2022/01/02 11:13:07;;;;;;;78.05;52.35;;;13.10;99.90;;;;;;5085358;28;20139;-83
2022/01/02 11:15:35;;;;;;;80.68;52.00;;;13.10;99.90;;;;;;5082369;28;20475;-84
2022/01/02 11:18:05;;;;;;;80.85;52.67;;;13.20;99.90;;;;;;5062997;28;20079;-84
2022/01/02 11:20:34;;;;;;;79.63;52.28;;;13.30;99.90;;;;;;5083679;28;20492;-85
2022/01/02 11:23:14;;;;;;;85.80;55.92;;;13.30;99.90;;;;;;5066933;28;20044;-82
2022/01/02 11:25:50;;;;;;;89.05;55.35;;;13.40;99.90;;;;;;5091250;28;20052;-81
2022/01/02 11:28:29;;;;;;;87.25;53.40;;;13.40;99.90;;;;;;5090048;28;20044;-82
2022/01/02 11:30:57;;;;;;;85.32;54.20;;;13.50;99.90;;;;;;5083783;28;20072;-82
2022/01/02 11:33:31;;;;;;;77.70;52.97;;;13.60;99.90;;;;;;5091614;28;20506;-83
2022/01/02 11:36:03;;;;;;;71.13;48.88;;;13.70;99.90;;;;;;5091034;28;20503;-84
2022/01/02 11:38:45;;;;;;;74.03;47.90;;;13.70;99.90;;;;;;5092076;28;20060;-83
2022/01/02 11:41:16;;;;;;;77.50;49.55;;;13.80;99.90;;;;;;5090750;28;20108;-83
2022/01/02 11:43:54;;;;;;;71.80;46.38;;;13.80;97.00;;;;;;5073554;28;20045;-84
2022/01/02 11:46:30;;;;;;;66.68;42.85;;;13.90;99.90;;;;;;5089891;28;20044;-82
2022/01/02 11:49:20;;;;;;;69.72;44.53;;;14.00;86.80;;;;;;5072890;28;20082;-83
2022/01/02 11:52:15;;;;;;;66.97;43.85;;;14.00;83.00;;;;;;5089633;28;20040;-81
2022/01/02 11:54:52;;;;;;;67.32;42.55;;;14.00;77.60;;;;;;5089930;28;20045;-82
2022/01/02 11:57:55;;;;;;;65.57;42.55;;;14.10;63.40;;;;;;5078978;28;20494;-83
2022/01/02 12:00:43;;;;;;;62.50;40.75;;;14.20;61.10;;;;;;5076852;28;20054;-83
2022/01/02 12:03:49;;;;;;;51.33;33.35;;;14.30;55.70;;;;;;5077469;28;20049;-82
2022/01/02 12:06:23;;;;;;;58.72;37.00;;;14.30;31.70;;;;;;5080180;28;20068;-82
2022/01/02 12:08:52;;;;;;;55.65;35.17;;;14.50;29.10;;;;;;5086780;28;20140;-85
2022/01/02 12:12:01;;;;;;;55.88;37.65;;;14.50;48.80;;;;;;5086498;28;20044;-81
2022/01/02 12:14:28;;;;;;;58.33;36.53;;;14.60;16.90;;;;;;5089055;28;20041;-82
2022/01/02 12:17:11;;;;;;;51.33;32.22;;;14.70;11.30;;;;;;5088144;28;20068;-84
2022/01/02 12:19:57;;;;;;;38.88;28.52;;;14.70;6.60;;;;;;5087751;28;20380;-83
2022/01/02 12:22:45;;;;;;;39.35;27.17;;;14.80;1.00;;;;;;5088379;28;20043;-83
2022/01/02 12:25:14;;;;;;;42.25;27.67;;;14.90;1.00;;;;;;5088416;28;20060;-83
2022/01/02 12:27:52;;;;;;;43.75;28.90;;;14.90;1.00;;;;;;5088537;28;20060;-83
2022/01/02 12:30:20;;;;;;;40.80;28.73;;;15.00;1.00;;;;;;5069651;28;20071;-83
2022/01/02 12:32:49;;;;;;;42.55;28.10;;;15.00;1.00;;;;;;5091014;28;20048;-83
2022/01/02 12:35:17;;;;;;;38.40;24.67;;;15.00;1.00;;;;;;5091697;28;20487;-83
2022/01/02 12:37:45;;;;;;;41.38;23.08;;;15.10;1.00;;;;;;5085728;28;20104;-81
2022/01/02 12:40:18;;;;;;;25.73;17.23;;;15.10;1.00;;;;;;5088148;28;20112;-82
2022/01/02 12:42:46;;;;;;;40.10;26.65;;;15.20;1.00;;;;;;5086780;28;20104;-81
2022/01/02 12:45:18;;;;;;;41.15;28.70;;;15.30;1.00;;;;;;5085713;28;20522;-81
2022/01/02 12:47:55;;;;;;;51.42;34.67;;;15.40;1.00;;;;;;5084159;28;20076;-81
2022/01/02 12:50:26;;;;;;;;;;;15.50;1.00;;;;;;5087458;28;20041;-82